sensor_id;sensor_type;location;lat;lon;timestamp;P1;durP1;ratioP1;P2;durP2;ratioP2
68357;SDS011;55276;53.260;50.222;2022-11-14T00:00:39;0.10;;;0.10;;
68357;SDS011;55276;53.260;50.222;2022-11-14T00:03:06;0.20;;;0.10;;
68357;SDS011;55276;53.260;50.222;2022-11-14T00:05:37;0.10;;;0.10;;
68357;SDS011;55276;53.260;50.222;2022-11-14T00:08:15;0.03;;;0.00;;
68357;SDS011;55276;53.260;50.222;2022-11-14T00:10:45;0.30;;;0.20;;
68357;SDS011;55276;53.260;50.222;2022-11-14T00:13:14;0.35;;;0.10;;
68357;SDS011;55276;53.260;50.222;2022-11-14T00:15:41;0.10;;;0.10;;
68357;SDS011;55276;53.260;50.222;2022-11-14T00:18:08;0.00;;;0.00;;
68357;SDS011;55276;53.260;50.222;2022-11-14T00:20:34;0.10;;;0.08;;
68357;SDS011;55276;53.260;50.222;2022-11-14T00:23:00;0.10;;;0.10;;
68357;SDS011;55276;53.260;50.222;2022-11-14T00:25:26;0.10;;;0.10;;
68357;SDS011;55276;53.260;50.222;2022-11-14T00:27:55;0.10;;;0.10;;
68357;SDS011;55276;53.260;50.222;2022-11-14T00:30:22;0.15;;;0.15;;
68357;SDS011;55276;53.260;50.222;2022-11-14T00:32:48;0.10;;;0.10;;
68357;SDS011;55276;53.260;50.222;2022-11-14T00:35:14;0.47;;;0.10;;
68357;SDS011;55276;53.260;50.222;2022-11-14T00:37:41;0.10;;;0.10;;
68357;SDS011;55276;53.260;50.222;2022-11-14T00:40:07;0.28;;;0.10;;
68357;SDS011;55276;53.260;50.222;2022-11-14T00:42:33;0.00;;;0.00;;
68357;SDS011;55276;53.260;50.222;2022-11-14T00:44:59;1.38;;;0.10;;
68357;SDS011;55276;53.260;50.222;2022-11-14T00:47:25;2.22;;;0.20;;
68357;SDS011;55276;53.260;50.222;2022-11-14T00:49:51;0.10;;;0.10;;
68357;SDS011;55276;53.260;50.222;2022-11-14T00:52:18;0.10;;;0.10;;
68357;SDS011;55276;53.260;50.222;2022-11-14T00:54:46;0.00;;;0.00;;
68357;SDS011;55276;53.260;50.222;2022-11-14T00:57:12;0.35;;;0.10;;
68357;SDS011;55276;53.260;50.222;2022-11-14T00:59:39;0.20;;;0.10;;
68357;SDS011;55276;53.260;50.222;2022-11-14T01:02:05;0.55;;;0.25;;
68357;SDS011;55276;53.260;50.222;2022-11-14T01:04:31;0.10;;;0.10;;
68357;SDS011;55276;53.260;50.222;2022-11-14T01:06:58;0.20;;;0.10;;
68357;SDS011;55276;53.260;50.222;2022-11-14T01:09:24;0.03;;;0.00;;
68357;SDS011;55276;53.260;50.222;2022-11-14T01:11:50;0.05;;;0.05;;
68357;SDS011;55276;53.260;50.222;2022-11-14T01:14:16;0.20;;;0.20;;
68357;SDS011;55276;53.260;50.222;2022-11-14T01:16:42;0.03;;;0.03;;
68357;SDS011;55276;53.260;50.222;2022-11-14T01:19:09;0.10;;;0.10;;
68357;SDS011;55276;53.260;50.222;2022-11-14T01:21:35;0.20;;;0.10;;
68357;SDS011;55276;53.260;50.222;2022-11-14T01:24:01;0.13;;;0.13;;
68357;SDS011;55276;53.260;50.222;2022-11-14T01:26:27;0.80;;;0.20;;
68357;SDS011;55276;53.260;50.222;2022-11-14T01:28:53;0.28;;;0.17;;
68357;SDS011;55276;53.260;50.222;2022-11-14T01:31:21;0.20;;;0.10;;
68357;SDS011;55276;53.260;50.222;2022-11-14T01:33:49;0.13;;;0.10;;
68357;SDS011;55276;53.260;50.222;2022-11-14T01:36:17;0.20;;;0.10;;
68357;SDS011;55276;53.260;50.222;2022-11-14T01:38:50;0.20;;;0.20;;
68357;SDS011;55276;53.260;50.222;2022-11-14T01:41:17;0.40;;;0.17;;
68357;SDS011;55276;53.260;50.222;2022-11-14T01:43:43;0.10;;;0.10;;
68357;SDS011;55276;53.260;50.222;2022-11-14T01:54:31;0.32;;;0.30;;
68357;SDS011;55276;53.260;50.222;2022-11-14T01:57:02;0.15;;;0.15;;
68357;SDS011;55276;53.260;50.222;2022-11-14T01:59:34;0.30;;;0.30;;
68357;SDS011;55276;53.260;50.222;2022-11-14T02:02:12;0.20;;;0.20;;
68357;SDS011;55276;53.260;50.222;2022-11-14T02:04:44;0.50;;;0.40;;
68357;SDS011;55276;53.260;50.222;2022-11-14T02:07:14;0.40;;;0.40;;
68357;SDS011;55276;53.260;50.222;2022-11-14T02:09:43;0.20;;;0.20;;
68357;SDS011;55276;53.260;50.222;2022-11-14T02:12:12;0.40;;;0.30;;
68357;SDS011;55276;53.260;50.222;2022-11-14T02:14:40;0.13;;;0.13;;
68357;SDS011;55276;53.260;50.222;2022-11-14T02:17:10;0.10;;;0.10;;
68357;SDS011;55276;53.260;50.222;2022-11-14T02:19:44;0.20;;;0.20;;
68357;SDS011;55276;53.260;50.222;2022-11-14T02:22:10;2.42;;;0.20;;
68357;SDS011;55276;53.260;50.222;2022-11-14T02:24:36;0.35;;;0.20;;
68357;SDS011;55276;53.260;50.222;2022-11-14T02:27:03;0.17;;;0.10;;
68357;SDS011;55276;53.260;50.222;2022-11-14T02:29:31;0.30;;;0.20;;
68357;SDS011;55276;53.260;50.222;2022-11-14T02:32:01;0.10;;;0.10;;
68357;SDS011;55276;53.260;50.222;2022-11-14T02:34:27;0.30;;;0.30;;
68357;SDS011;55276;53.260;50.222;2022-11-14T02:36:54;0.20;;;0.20;;
68357;SDS011;55276;53.260;50.222;2022-11-14T02:39:21;0.30;;;0.20;;
68357;SDS011;55276;53.260;50.222;2022-11-14T02:41:48;0.55;;;0.30;;
68357;SDS011;55276;53.260;50.222;2022-11-14T02:44:15;0.10;;;0.10;;
68357;SDS011;55276;53.260;50.222;2022-11-14T02:46:42;0.25;;;0.20;;
68357;SDS011;55276;53.260;50.222;2022-11-14T02:49:08;0.15;;;0.10;;
68357;SDS011;55276;53.260;50.222;2022-11-14T02:51:34;0.77;;;0.35;;
68357;SDS011;55276;53.260;50.222;2022-11-14T02:54:00;0.20;;;0.20;;
68357;SDS011;55276;53.260;50.222;2022-11-14T02:56:26;1.27;;;0.10;;
68357;SDS011;55276;53.260;50.222;2022-11-14T02:58:53;0.20;;;0.20;;
68357;SDS011;55276;53.260;50.222;2022-11-14T03:01:22;0.28;;;0.20;;
68357;SDS011;55276;53.260;50.222;2022-11-14T03:03:48;0.40;;;0.20;;
68357;SDS011;55276;53.260;50.222;2022-11-14T03:06:16;0.70;;;0.30;;
68357;SDS011;55276;53.260;50.222;2022-11-14T03:08:43;0.60;;;0.10;;
68357;SDS011;55276;53.260;50.222;2022-11-14T03:11:09;0.45;;;0.25;;
68357;SDS011;55276;53.260;50.222;2022-11-14T03:13:35;0.20;;;0.20;;
68357;SDS011;55276;53.260;50.222;2022-11-14T03:16:08;0.28;;;0.20;;
68357;SDS011;55276;53.260;50.222;2022-11-14T03:18:39;0.28;;;0.20;;
68357;SDS011;55276;53.260;50.222;2022-11-14T03:21:09;0.60;;;0.28;;
68357;SDS011;55276;53.260;50.222;2022-11-14T03:23:41;0.32;;;0.22;;
68357;SDS011;55276;53.260;50.222;2022-11-14T03:26:09;0.60;;;0.30;;
68357;SDS011;55276;53.260;50.222;2022-11-14T03:28:36;0.30;;;0.20;;
68357;SDS011;55276;53.260;50.222;2022-11-14T03:31:04;0.20;;;0.20;;
68357;SDS011;55276;53.260;50.222;2022-11-14T03:33:31;0.10;;;0.10;;
68357;SDS011;55276;53.260;50.222;2022-11-14T03:35:57;0.30;;;0.20;;
68357;SDS011;55276;53.260;50.222;2022-11-14T03:38:23;0.20;;;0.10;;
68357;SDS011;55276;53.260;50.222;2022-11-14T03:40:50;0.20;;;0.20;;
68357;SDS011;55276;53.260;50.222;2022-11-14T03:43:19;0.22;;;0.20;;
68357;SDS011;55276;53.260;50.222;2022-11-14T03:45:46;0.70;;;0.30;;
68357;SDS011;55276;53.260;50.222;2022-11-14T03:48:12;0.20;;;0.20;;
68357;SDS011;55276;53.260;50.222;2022-11-14T03:50:39;0.20;;;0.20;;
68357;SDS011;55276;53.260;50.222;2022-11-14T03:53:06;0.28;;;0.20;;
68357;SDS011;55276;53.260;50.222;2022-11-14T03:55:32;0.20;;;0.20;;
68357;SDS011;55276;53.260;50.222;2022-11-14T03:58:01;0.77;;;0.30;;
68357;SDS011;55276;53.260;50.222;2022-11-14T04:00:27;0.45;;;0.25;;
68357;SDS011;55276;53.260;50.222;2022-11-14T04:02:53;1.20;;;0.40;;
68357;SDS011;55276;53.260;50.222;2022-11-14T04:05:23;0.35;;;0.20;;
68357;SDS011;55276;53.260;50.222;2022-11-14T04:07:50;0.40;;;0.40;;
68357;SDS011;55276;53.260;50.222;2022-11-14T04:10:17;0.63;;;0.30;;
68357;SDS011;55276;53.260;50.222;2022-11-14T04:12:53;0.30;;;0.30;;
68357;SDS011;55276;53.260;50.222;2022-11-14T04:15:19;0.38;;;0.38;;
68357;SDS011;55276;53.260;50.222;2022-11-14T04:17:46;0.20;;;0.20;;
68357;SDS011;55276;53.260;50.222;2022-11-14T04:20:12;1.40;;;0.30;;
68357;SDS011;55276;53.260;50.222;2022-11-14T04:22:39;2.47;;;0.22;;
68357;SDS011;55276;53.260;50.222;2022-11-14T04:25:06;0.55;;;0.50;;
68357;SDS011;55276;53.260;50.222;2022-11-14T04:27:33;0.40;;;0.40;;
68357;SDS011;55276;53.260;50.222;2022-11-14T04:29:59;0.20;;;0.20;;
68357;SDS011;55276;53.260;50.222;2022-11-14T04:32:25;0.43;;;0.20;;
68357;SDS011;55276;53.260;50.222;2022-11-14T04:34:51;0.20;;;0.20;;
68357;SDS011;55276;53.260;50.222;2022-11-14T04:37:17;0.63;;;0.20;;
68357;SDS011;55276;53.260;50.222;2022-11-14T04:39:43;0.85;;;0.38;;
68357;SDS011;55276;53.260;50.222;2022-11-14T04:42:09;0.20;;;0.20;;
68357;SDS011;55276;53.260;50.222;2022-11-14T04:44:35;0.43;;;0.30;;
68357;SDS011;55276;53.260;50.222;2022-11-14T04:47:01;0.20;;;0.20;;
68357;SDS011;55276;53.260;50.222;2022-11-14T04:49:27;0.40;;;0.32;;
68357;SDS011;55276;53.260;50.222;2022-11-14T04:51:53;0.20;;;0.15;;
68357;SDS011;55276;53.260;50.222;2022-11-14T04:54:20;0.30;;;0.30;;
68357;SDS011;55276;53.260;50.222;2022-11-14T04:56:46;0.20;;;0.20;;
68357;SDS011;55276;53.260;50.222;2022-11-14T04:59:12;0.45;;;0.22;;
68357;SDS011;55276;53.260;50.222;2022-11-14T05:01:38;1.50;;;0.43;;
68357;SDS011;55276;53.260;50.222;2022-11-14T05:04:04;0.30;;;0.20;;
68357;SDS011;55276;53.260;50.222;2022-11-14T05:06:31;0.20;;;0.20;;
68357;SDS011;55276;53.260;50.222;2022-11-14T05:08:58;1.70;;;0.10;;
68357;SDS011;55276;53.260;50.222;2022-11-14T05:11:24;0.35;;;0.10;;
68357;SDS011;55276;53.260;50.222;2022-11-14T05:13:50;0.80;;;0.30;;
68357;SDS011;55276;53.260;50.222;2022-11-14T05:16:16;0.22;;;0.20;;
68357;SDS011;55276;53.260;50.222;2022-11-14T05:18:42;0.10;;;0.10;;
68357;SDS011;55276;53.260;50.222;2022-11-14T05:21:14;0.20;;;0.10;;
68357;SDS011;55276;53.260;50.222;2022-11-14T05:23:40;0.25;;;0.25;;
68357;SDS011;55276;53.260;50.222;2022-11-14T05:26:08;0.80;;;0.40;;
68357;SDS011;55276;53.260;50.222;2022-11-14T05:28:35;0.15;;;0.15;;
68357;SDS011;55276;53.260;50.222;2022-11-14T05:33:29;0.90;;;0.30;;
68357;SDS011;55276;53.260;50.222;2022-11-14T05:35:55;0.25;;;0.25;;
68357;SDS011;55276;53.260;50.222;2022-11-14T05:38:26;0.30;;;0.15;;
68357;SDS011;55276;53.260;50.222;2022-11-14T05:40:52;0.30;;;0.30;;
68357;SDS011;55276;53.260;50.222;2022-11-14T05:43:18;0.47;;;0.30;;
68357;SDS011;55276;53.260;50.222;2022-11-14T05:45:44;1.75;;;0.30;;
68357;SDS011;55276;53.260;50.222;2022-11-14T05:48:10;0.52;;;0.28;;
68357;SDS011;55276;53.260;50.222;2022-11-14T05:50:36;0.10;;;0.10;;
68357;SDS011;55276;53.260;50.222;2022-11-14T05:53:02;0.28;;;0.22;;
68357;SDS011;55276;53.260;50.222;2022-11-14T05:55:29;0.75;;;0.40;;
68357;SDS011;55276;53.260;50.222;2022-11-14T05:57:58;0.30;;;0.20;;
68357;SDS011;55276;53.260;50.222;2022-11-14T06:00:25;0.20;;;0.20;;
68357;SDS011;55276;53.260;50.222;2022-11-14T06:02:52;0.17;;;0.17;;
68357;SDS011;55276;53.260;50.222;2022-11-14T06:05:19;0.25;;;0.20;;
68357;SDS011;55276;53.260;50.222;2022-11-14T06:07:53;0.50;;;0.30;;
68357;SDS011;55276;53.260;50.222;2022-11-14T06:10:21;0.65;;;0.30;;
68357;SDS011;55276;53.260;50.222;2022-11-14T06:12:47;0.50;;;0.28;;
68357;SDS011;55276;53.260;50.222;2022-11-14T06:15:13;0.35;;;0.20;;
68357;SDS011;55276;53.260;50.222;2022-11-14T06:17:40;1.05;;;0.30;;
68357;SDS011;55276;53.260;50.222;2022-11-14T06:20:06;0.93;;;0.20;;
68357;SDS011;55276;53.260;50.222;2022-11-14T06:22:32;1.10;;;0.43;;
68357;SDS011;55276;53.260;50.222;2022-11-14T06:25:03;0.20;;;0.20;;
68357;SDS011;55276;53.260;50.222;2022-11-14T06:27:29;0.50;;;0.45;;
68357;SDS011;55276;53.260;50.222;2022-11-14T06:29:56;0.30;;;0.30;;
68357;SDS011;55276;53.260;50.222;2022-11-14T06:32:22;0.30;;;0.30;;
68357;SDS011;55276;53.260;50.222;2022-11-14T06:34:48;0.50;;;0.40;;
68357;SDS011;55276;53.260;50.222;2022-11-14T06:37:14;0.22;;;0.22;;
68357;SDS011;55276;53.260;50.222;2022-11-14T06:39:40;0.47;;;0.30;;
68357;SDS011;55276;53.260;50.222;2022-11-14T06:42:08;0.43;;;0.30;;
68357;SDS011;55276;53.260;50.222;2022-11-14T06:44:34;1.48;;;0.43;;
68357;SDS011;55276;53.260;50.222;2022-11-14T06:47:00;0.43;;;0.40;;
68357;SDS011;55276;53.260;50.222;2022-11-14T06:49:26;1.67;;;0.45;;
68357;SDS011;55276;53.260;50.222;2022-11-14T06:51:52;0.50;;;0.30;;
68357;SDS011;55276;53.260;50.222;2022-11-14T06:54:19;0.30;;;0.30;;
68357;SDS011;55276;53.260;50.222;2022-11-14T06:56:45;0.40;;;0.20;;
68357;SDS011;55276;53.260;50.222;2022-11-14T06:59:11;0.60;;;0.40;;
68357;SDS011;55276;53.260;50.222;2022-11-14T07:01:37;0.63;;;0.40;;
68357;SDS011;55276;53.260;50.222;2022-11-14T07:04:03;1.58;;;0.47;;
68357;SDS011;55276;53.260;50.222;2022-11-14T07:06:29;0.77;;;0.60;;
68357;SDS011;55276;53.260;50.222;2022-11-14T07:08:57;0.98;;;0.45;;
68357;SDS011;55276;53.260;50.222;2022-11-14T07:11:25;1.85;;;0.40;;
68357;SDS011;55276;53.260;50.222;2022-11-14T07:13:54;0.75;;;0.57;;
68357;SDS011;55276;53.260;50.222;2022-11-14T07:16:23;0.82;;;0.50;;
68357;SDS011;55276;53.260;50.222;2022-11-14T07:18:51;1.90;;;0.60;;
68357;SDS011;55276;53.260;50.222;2022-11-14T07:21:17;1.65;;;0.63;;
68357;SDS011;55276;53.260;50.222;2022-11-14T07:23:43;0.60;;;0.52;;
68357;SDS011;55276;53.260;50.222;2022-11-14T07:26:09;0.80;;;0.50;;
68357;SDS011;55276;53.260;50.222;2022-11-14T07:28:37;0.93;;;0.60;;
68357;SDS011;55276;53.260;50.222;2022-11-14T07:31:06;1.80;;;0.95;;
68357;SDS011;55276;53.260;50.222;2022-11-14T07:33:34;1.35;;;0.60;;
68357;SDS011;55276;53.260;50.222;2022-11-14T07:36:00;0.68;;;0.50;;
68357;SDS011;55276;53.260;50.222;2022-11-14T07:38:26;2.53;;;0.90;;
68357;SDS011;55276;53.260;50.222;2022-11-14T07:40:57;1.23;;;0.65;;
68357;SDS011;55276;53.260;50.222;2022-11-14T07:43:24;2.08;;;0.70;;
68357;SDS011;55276;53.260;50.222;2022-11-14T07:45:51;1.08;;;0.50;;
68357;SDS011;55276;53.260;50.222;2022-11-14T07:48:17;1.15;;;0.70;;
68357;SDS011;55276;53.260;50.222;2022-11-14T07:50:43;1.40;;;0.80;;
68357;SDS011;55276;53.260;50.222;2022-11-14T07:53:11;1.40;;;0.85;;
68357;SDS011;55276;53.260;50.222;2022-11-14T07:55:37;4.50;;;0.80;;
68357;SDS011;55276;53.260;50.222;2022-11-14T07:58:04;1.70;;;1.00;;
68357;SDS011;55276;53.260;50.222;2022-11-14T08:00:30;0.63;;;0.60;;
68357;SDS011;55276;53.260;50.222;2022-11-14T08:02:56;2.65;;;0.98;;
68357;SDS011;55276;53.260;50.222;2022-11-14T08:05:22;4.30;;;1.15;;
68357;SDS011;55276;53.260;50.222;2022-11-14T08:07:50;1.10;;;0.60;;
68357;SDS011;55276;53.260;50.222;2022-11-14T08:10:41;1.25;;;0.85;;
68357;SDS011;55276;53.260;50.222;2022-11-14T08:13:09;1.15;;;0.68;;
68357;SDS011;55276;53.260;50.222;2022-11-14T08:15:40;1.20;;;0.77;;
68357;SDS011;55276;53.260;50.222;2022-11-14T08:18:06;1.13;;;0.80;;
68357;SDS011;55276;53.260;50.222;2022-11-14T08:20:32;1.27;;;0.95;;
68357;SDS011;55276;53.260;50.222;2022-11-14T08:23:02;1.27;;;0.80;;
68357;SDS011;55276;53.260;50.222;2022-11-14T08:25:29;0.80;;;0.70;;
68357;SDS011;55276;53.260;50.222;2022-11-14T08:27:55;1.08;;;0.70;;
68357;SDS011;55276;53.260;50.222;2022-11-14T08:30:23;1.83;;;0.85;;
68357;SDS011;55276;53.260;50.222;2022-11-14T08:32:50;2.05;;;1.10;;
68357;SDS011;55276;53.260;50.222;2022-11-14T08:35:16;0.95;;;0.50;;
68357;SDS011;55276;53.260;50.222;2022-11-14T08:37:42;2.38;;;0.77;;
68357;SDS011;55276;53.260;50.222;2022-11-14T08:40:08;1.08;;;0.77;;
68357;SDS011;55276;53.260;50.222;2022-11-14T08:42:35;1.42;;;0.75;;
68357;SDS011;55276;53.260;50.222;2022-11-14T08:45:01;0.93;;;0.60;;
68357;SDS011;55276;53.260;50.222;2022-11-14T08:47:27;1.00;;;0.80;;
68357;SDS011;55276;53.260;50.222;2022-11-14T08:49:53;1.10;;;0.80;;
68357;SDS011;55276;53.260;50.222;2022-11-14T08:52:20;1.15;;;0.70;;
68357;SDS011;55276;53.260;50.222;2022-11-14T08:54:46;0.98;;;0.60;;
68357;SDS011;55276;53.260;50.222;2022-11-14T08:57:12;3.10;;;0.60;;
68357;SDS011;55276;53.260;50.222;2022-11-14T08:59:42;1.13;;;0.57;;
68357;SDS011;55276;53.260;50.222;2022-11-14T09:02:09;0.82;;;0.70;;
68357;SDS011;55276;53.260;50.222;2022-11-14T09:04:40;1.40;;;0.77;;
68357;SDS011;55276;53.260;50.222;2022-11-14T09:07:06;0.68;;;0.57;;
68357;SDS011;55276;53.260;50.222;2022-11-14T09:09:32;1.00;;;0.70;;
68357;SDS011;55276;53.260;50.222;2022-11-14T09:12:00;1.17;;;0.50;;
68357;SDS011;55276;53.260;50.222;2022-11-14T09:14:26;0.73;;;0.50;;
68357;SDS011;55276;53.260;50.222;2022-11-14T09:16:52;1.70;;;1.00;;
68357;SDS011;55276;53.260;50.222;2022-11-14T09:19:18;1.13;;;0.75;;
68357;SDS011;55276;53.260;50.222;2022-11-14T09:21:44;1.98;;;0.57;;
68357;SDS011;55276;53.260;50.222;2022-11-14T09:24:10;0.60;;;0.60;;
68357;SDS011;55276;53.260;50.222;2022-11-14T09:26:36;1.02;;;0.63;;
68357;SDS011;55276;53.260;50.222;2022-11-14T09:29:02;2.28;;;0.80;;
68357;SDS011;55276;53.260;50.222;2022-11-14T09:31:30;1.13;;;0.52;;
68357;SDS011;55276;53.260;50.222;2022-11-14T09:33:56;0.60;;;0.30;;
68357;SDS011;55276;53.260;50.222;2022-11-14T09:36:22;2.28;;;0.50;;
68357;SDS011;55276;53.260;50.222;2022-11-14T09:38:49;0.45;;;0.38;;
68357;SDS011;55276;53.260;50.222;2022-11-14T09:41:23;1.45;;;0.28;;
68357;SDS011;55276;53.260;50.222;2022-11-14T09:46:49;2.67;;;0.38;;
68357;SDS011;55276;53.260;50.222;2022-11-14T09:51:57;2.33;;;0.38;;
68357;SDS011;55276;53.260;50.222;2022-11-14T09:54:43;1.35;;;0.28;;
68357;SDS011;55276;53.260;50.222;2022-11-14T09:57:15;0.30;;;0.25;;
68357;SDS011;55276;53.260;50.222;2022-11-14T09:59:43;0.35;;;0.25;;
68357;SDS011;55276;53.260;50.222;2022-11-14T10:10:31;0.73;;;0.50;;
68357;SDS011;55276;53.260;50.222;2022-11-14T10:16:14;3.60;;;0.40;;
68357;SDS011;55276;53.260;50.222;2022-11-14T10:21:55;1.33;;;0.52;;
68357;SDS011;55276;53.260;50.222;2022-11-14T10:24:40;4.15;;;0.50;;
68357;SDS011;55276;53.260;50.222;2022-11-14T10:27:51;1.38;;;0.63;;
68357;SDS011;55276;53.260;50.222;2022-11-14T10:30:21;0.77;;;0.50;;
68357;SDS011;55276;53.260;50.222;2022-11-14T10:35:23;0.50;;;0.30;;
68357;SDS011;55276;53.260;50.222;2022-11-14T10:37:58;0.20;;;0.20;;
68357;SDS011;55276;53.260;50.222;2022-11-14T10:40:44;2.22;;;0.40;;
68357;SDS011;55276;53.260;50.222;2022-11-14T10:46:06;0.85;;;0.30;;
68357;SDS011;55276;53.260;50.222;2022-11-14T10:48:55;2.30;;;0.80;;
68357;SDS011;55276;53.260;50.222;2022-11-14T10:54:17;1.38;;;0.70;;
68357;SDS011;55276;53.260;50.222;2022-11-14T10:56:49;1.15;;;0.80;;
68357;SDS011;55276;53.260;50.222;2022-11-14T10:59:17;0.90;;;0.57;;
68357;SDS011;55276;53.260;50.222;2022-11-14T11:07:19;0.60;;;0.47;;
68357;SDS011;55276;53.260;50.222;2022-11-14T11:10:21;1.00;;;0.60;;
68357;SDS011;55276;53.260;50.222;2022-11-14T11:13:08;1.15;;;0.50;;
68357;SDS011;55276;53.260;50.222;2022-11-14T11:15:39;1.48;;;0.45;;
68357;SDS011;55276;53.260;50.222;2022-11-14T11:23:27;0.52;;;0.40;;
68357;SDS011;55276;53.260;50.222;2022-11-14T11:26:04;0.52;;;0.32;;
68357;SDS011;55276;53.260;50.222;2022-11-14T11:29:00;0.80;;;0.32;;
68357;SDS011;55276;53.260;50.222;2022-11-14T11:31:26;0.90;;;0.52;;
68357;SDS011;55276;53.260;50.222;2022-11-14T11:33:54;1.60;;;0.60;;
68357;SDS011;55276;53.260;50.222;2022-11-14T11:36:27;0.95;;;0.47;;
68357;SDS011;55276;53.260;50.222;2022-11-14T11:39:00;0.52;;;0.50;;
68357;SDS011;55276;53.260;50.222;2022-11-14T11:41:28;1.65;;;0.52;;
68357;SDS011;55276;53.260;50.222;2022-11-14T11:44:05;1.05;;;0.50;;
68357;SDS011;55276;53.260;50.222;2022-11-14T11:55:33;4.40;;;0.98;;
68357;SDS011;55276;53.260;50.222;2022-11-14T11:57:42;1.63;;;0.80;;
68357;SDS011;55276;53.260;50.222;2022-11-14T12:00:13;1.25;;;0.60;;
68357;SDS011;55276;53.260;50.222;2022-11-14T12:02:50;5.43;;;0.57;;
68357;SDS011;55276;53.260;50.222;2022-11-14T12:08:03;3.03;;;0.77;;
68357;SDS011;55276;53.260;50.222;2022-11-14T12:10:35;1.10;;;0.70;;
68357;SDS011;55276;53.260;50.222;2022-11-14T12:18:51;3.33;;;0.60;;
68357;SDS011;55276;53.260;50.222;2022-11-14T12:21:46;0.60;;;0.60;;
68357;SDS011;55276;53.260;50.222;2022-11-14T12:30:27;4.10;;;0.80;;
68357;SDS011;55276;53.260;50.222;2022-11-14T12:32:59;3.35;;;0.80;;
68357;SDS011;55276;53.260;50.222;2022-11-14T12:35:54;6.72;;;0.70;;
68357;SDS011;55276;53.260;50.222;2022-11-14T12:38:23;1.65;;;0.60;;
68357;SDS011;55276;53.260;50.222;2022-11-14T12:40:58;4.20;;;0.80;;
68357;SDS011;55276;53.260;50.222;2022-11-14T12:46:04;1.00;;;0.60;;
68357;SDS011;55276;53.260;50.222;2022-11-14T12:48:37;2.80;;;1.08;;
68357;SDS011;55276;53.260;50.222;2022-11-14T12:51:05;3.92;;;0.77;;
68357;SDS011;55276;53.260;50.222;2022-11-14T12:53:50;0.55;;;0.45;;
68357;SDS011;55276;53.260;50.222;2022-11-14T12:56:40;1.08;;;0.70;;
68357;SDS011;55276;53.260;50.222;2022-11-14T12:59:27;1.48;;;0.80;;
68357;SDS011;55276;53.260;50.222;2022-11-14T13:02:05;1.27;;;0.50;;
68357;SDS011;55276;53.260;50.222;2022-11-14T13:08:26;3.95;;;0.90;;
68357;SDS011;55276;53.260;50.222;2022-11-14T13:13:15;3.20;;;1.02;;
68357;SDS011;55276;53.260;50.222;2022-11-14T13:16:02;15.20;;;0.90;;
68357;SDS011;55276;53.260;50.222;2022-11-14T13:18:51;0.73;;;0.57;;
68357;SDS011;55276;53.260;50.222;2022-11-14T13:27:24;1.80;;;0.93;;
68357;SDS011;55276;53.260;50.222;2022-11-14T13:29:58;3.80;;;0.82;;
68357;SDS011;55276;53.260;50.222;2022-11-14T13:35:28;1.38;;;0.77;;
68357;SDS011;55276;53.260;50.222;2022-11-14T13:38:28;9.10;;;1.30;;
68357;SDS011;55276;53.260;50.222;2022-11-14T13:51:54;1.98;;;1.17;;
68357;SDS011;55276;53.260;50.222;2022-11-14T13:54:21;2.90;;;1.45;;
68357;SDS011;55276;53.260;50.222;2022-11-14T14:21:34;3.42;;;1.27;;
68357;SDS011;55276;53.260;50.222;2022-11-14T14:32:17;3.03;;;1.40;;
68357;SDS011;55276;53.260;50.222;2022-11-14T14:37:15;3.50;;;1.10;;
68357;SDS011;55276;53.260;50.222;2022-11-14T14:39:58;2.70;;;1.10;;
68357;SDS011;55276;53.260;50.222;2022-11-14T14:42:26;2.92;;;1.20;;
68357;SDS011;55276;53.260;50.222;2022-11-14T14:45:09;2.55;;;1.15;;
68357;SDS011;55276;53.260;50.222;2022-11-14T14:47:40;1.95;;;0.85;;
68357;SDS011;55276;53.260;50.222;2022-11-14T14:50:15;3.13;;;1.10;;
68357;SDS011;55276;53.260;50.222;2022-11-14T14:52:44;5.00;;;1.40;;
68357;SDS011;55276;53.260;50.222;2022-11-14T14:55:21;3.35;;;0.90;;
68357;SDS011;55276;53.260;50.222;2022-11-14T14:57:51;1.67;;;1.00;;
68357;SDS011;55276;53.260;50.222;2022-11-14T15:00:22;3.15;;;0.85;;
68357;SDS011;55276;53.260;50.222;2022-11-14T15:02:53;2.47;;;1.38;;
68357;SDS011;55276;53.260;50.222;2022-11-14T15:05:24;1.73;;;0.82;;
68357;SDS011;55276;53.260;50.222;2022-11-14T15:07:54;3.88;;;0.93;;
68357;SDS011;55276;53.260;50.222;2022-11-14T15:10:24;2.05;;;1.00;;
68357;SDS011;55276;53.260;50.222;2022-11-14T15:12:56;1.65;;;0.82;;
68357;SDS011;55276;53.260;50.222;2022-11-14T15:15:25;3.25;;;1.30;;
68357;SDS011;55276;53.260;50.222;2022-11-14T15:17:54;2.00;;;0.82;;
68357;SDS011;55276;53.260;50.222;2022-11-14T15:20:24;9.18;;;3.42;;
68357;SDS011;55276;53.260;50.222;2022-11-14T15:23:02;2.50;;;0.93;;
68357;SDS011;55276;53.260;50.222;2022-11-14T15:25:29;3.72;;;1.30;;
68357;SDS011;55276;53.260;50.222;2022-11-14T15:27:55;2.72;;;0.85;;
68357;SDS011;55276;53.260;50.222;2022-11-14T15:30:29;1.35;;;0.80;;
68357;SDS011;55276;53.260;50.222;2022-11-14T15:33:00;1.88;;;0.80;;
68357;SDS011;55276;53.260;50.222;2022-11-14T15:35:30;2.05;;;0.90;;
68357;SDS011;55276;53.260;50.222;2022-11-14T15:40:38;1.60;;;0.90;;
68357;SDS011;55276;53.260;50.222;2022-11-14T15:49:07;3.22;;;1.10;;
68357;SDS011;55276;53.260;50.222;2022-11-14T15:51:46;0.88;;;0.68;;
68357;SDS011;55276;53.260;50.222;2022-11-14T15:56:50;3.83;;;1.10;;
68357;SDS011;55276;53.260;50.222;2022-11-14T15:59:17;1.33;;;0.70;;
68357;SDS011;55276;53.260;50.222;2022-11-14T16:01:44;1.38;;;0.55;;
68357;SDS011;55276;53.260;50.222;2022-11-14T16:04:17;2.15;;;0.70;;
68357;SDS011;55276;53.260;50.222;2022-11-14T16:06:49;4.35;;;0.70;;
68357;SDS011;55276;53.260;50.222;2022-11-14T16:09:17;1.30;;;0.63;;
68357;SDS011;55276;53.260;50.222;2022-11-14T16:11:45;0.85;;;0.50;;
68357;SDS011;55276;53.260;50.222;2022-11-14T16:14:11;2.08;;;0.77;;
68357;SDS011;55276;53.260;50.222;2022-11-14T16:16:38;1.15;;;0.70;;
68357;SDS011;55276;53.260;50.222;2022-11-14T16:21:35;2.15;;;0.98;;
68357;SDS011;55276;53.260;50.222;2022-11-14T16:24:02;1.00;;;0.60;;
68357;SDS011;55276;53.260;50.222;2022-11-14T16:26:28;0.70;;;0.60;;
68357;SDS011;55276;53.260;50.222;2022-11-14T16:28:55;2.55;;;0.77;;
68357;SDS011;55276;53.260;50.222;2022-11-14T16:31:22;2.08;;;1.00;;
68357;SDS011;55276;53.260;50.222;2022-11-14T16:33:51;1.55;;;0.63;;
68357;SDS011;55276;53.260;50.222;2022-11-14T16:36:18;1.15;;;0.70;;
68357;SDS011;55276;53.260;50.222;2022-11-14T16:38:45;0.82;;;0.57;;
68357;SDS011;55276;53.260;50.222;2022-11-14T16:41:12;1.85;;;0.82;;
68357;SDS011;55276;53.260;50.222;2022-11-14T16:43:38;1.17;;;1.00;;
68357;SDS011;55276;53.260;50.222;2022-11-14T16:46:05;3.55;;;0.90;;
68357;SDS011;55276;53.260;50.222;2022-11-14T16:48:32;7.32;;;1.67;;
68357;SDS011;55276;53.260;50.222;2022-11-14T16:51:01;1.52;;;0.90;;
68357;SDS011;55276;53.260;50.222;2022-11-14T16:53:31;1.13;;;0.80;;
68357;SDS011;55276;53.260;50.222;2022-11-14T16:55:57;5.75;;;1.00;;
68357;SDS011;55276;53.260;50.222;2022-11-14T16:58:23;2.30;;;0.73;;
68357;SDS011;55276;53.260;50.222;2022-11-14T17:00:49;1.70;;;0.82;;
68357;SDS011;55276;53.260;50.222;2022-11-14T17:03:15;1.88;;;0.80;;
68357;SDS011;55276;53.260;50.222;2022-11-14T17:05:43;5.82;;;1.02;;
68357;SDS011;55276;53.260;50.222;2022-11-14T17:08:10;1.52;;;0.90;;
68357;SDS011;55276;53.260;50.222;2022-11-14T17:10:42;3.72;;;0.75;;
68357;SDS011;55276;53.260;50.222;2022-11-14T17:13:09;1.48;;;0.88;;
68357;SDS011;55276;53.260;50.222;2022-11-14T17:15:36;2.28;;;0.70;;